sensor_id;sensor_type;location;lat;lon;timestamp;pressure;altitude;pressure_sealevel;temperature;humidity
15932;BME280;8065;49.520;11.284;2023-10-19T00:01:14;96096.00;;;11.01;87.86
15932;BME280;8065;49.520;11.284;2023-10-19T00:03:43;96093.94;;;11.13;87.73
15932;BME280;8065;49.520;11.284;2023-10-19T00:06:09;96094.56;;;11.07;87.15
15932;BME280;8065;49.520;11.284;2023-10-19T00:08:38;96083.00;;;10.96;87.78
15932;BME280;8065;49.520;11.284;2023-10-19T00:11:11;96076.25;;;11.02;87.79
15932;BME280;8065;49.520;11.284;2023-10-19T00:13:47;96084.88;;;11.18;87.15
15932;BME280;8065;49.520;11.284;2023-10-19T00:16:19;96081.69;;;11.09;88.04
15932;BME280;8065;49.520;11.284;2023-10-19T00:18:54;96078.75;;;11.14;87.55
15932;BME280;8065;49.520;11.284;2023-10-19T00:21:24;96081.50;;;11.21;86.77
15932;BME280;8065;49.520;11.284;2023-10-19T00:23:52;96071.88;;;11.13;87.46
15932;BME280;8065;49.520;11.284;2023-10-19T00:26:25;96074.06;;;11.07;87.84
15932;BME280;8065;49.520;11.284;2023-10-19T00:28:55;96061.50;;;11.04;87.91
15932;BME280;8065;49.520;11.284;2023-10-19T00:31:27;96060.31;;;11.02;87.75
15932;BME280;8065;49.520;11.284;2023-10-19T00:33:53;96059.38;;;11.13;87.48
15932;BME280;8065;49.520;11.284;2023-10-19T00:36:23;96053.47;;;11.01;88.46
15932;BME280;8065;49.520;11.284;2023-10-19T00:38:52;96052.88;;;11.11;87.68
15932;BME280;8065;49.520;11.284;2023-10-19T00:41:26;96054.94;;;11.21;87.24
15932;BME280;8065;49.520;11.284;2023-10-19T00:43:57;96055.13;;;11.35;86.87
15932;BME280;8065;49.520;11.284;2023-10-19T00:46:28;96046.53;;;11.19;87.81
15932;BME280;8065;49.520;11.284;2023-10-19T00:49:04;96050.56;;;11.09;87.52
15932;BME280;8065;49.520;11.284;2023-10-19T00:51:36;96044.53;;;11.12;87.02
15932;BME280;8065;49.520;11.284;2023-10-19T00:54:17;96034.06;;;11.23;86.83
15932;BME280;8065;49.520;11.284;2023-10-19T00:56:54;96040.19;;;11.27;86.81
15932;BME280;8065;49.520;11.284;2023-10-19T00:59:25;96036.09;;;11.07;87.72
15932;BME280;8065;49.520;11.284;2023-10-19T01:01:56;96039.34;;;11.20;86.93
15932;BME280;8065;49.520;11.284;2023-10-19T01:04:42;96035.03;;;10.89;88.59
15932;BME280;8065;49.520;11.284;2023-10-19T01:07:11;96029.25;;;11.06;87.74
15932;BME280;8065;49.520;11.284;2023-10-19T01:09:42;96022.25;;;11.21;87.23
15932;BME280;8065;49.520;11.284;2023-10-19T01:12:14;96007.38;;;11.16;87.99
15932;BME280;8065;49.520;11.284;2023-10-19T01:15:07;96018.84;;;11.20;88.34
15932;BME280;8065;49.520;11.284;2023-10-19T01:17:39;96014.88;;;11.37;86.68
15932;BME280;8065;49.520;11.284;2023-10-19T01:20:10;96016.31;;;11.31;86.72
15932;BME280;8065;49.520;11.284;2023-10-19T01:22:51;96012.81;;;11.23;87.14
15932;BME280;8065;49.520;11.284;2023-10-19T01:25:43;96005.66;;;11.31;87.16
15932;BME280;8065;49.520;11.284;2023-10-19T01:28:15;96003.66;;;11.21;86.70
15932;BME280;8065;49.520;11.284;2023-10-19T01:30:44;96011.63;;;11.21;87.01
15932;BME280;8065;49.520;11.284;2023-10-19T01:33:16;96002.28;;;11.34;86.72
15932;BME280;8065;49.520;11.284;2023-10-19T01:35:45;96006.66;;;11.19;87.76
15932;BME280;8065;49.520;11.284;2023-10-19T01:38:28;95997.63;;;11.27;87.80
15932;BME280;8065;49.520;11.284;2023-10-19T01:40:59;95991.69;;;11.37;87.36
15932;BME280;8065;49.520;11.284;2023-10-19T01:43:25;95990.06;;;11.56;86.64
15932;BME280;8065;49.520;11.284;2023-10-19T01:45:55;95992.41;;;11.34;87.02
15932;BME280;8065;49.520;11.284;2023-10-19T01:48:29;95983.56;;;11.53;86.54
15932;BME280;8065;49.520;11.284;2023-10-19T01:50:59;95997.31;;;11.59;86.17
15932;BME280;8065;49.520;11.284;2023-10-19T01:53:31;95990.47;;;11.58;86.42
15932;BME280;8065;49.520;11.284;2023-10-19T01:55:57;95984.22;;;11.46;87.31
15932;BME280;8065;49.520;11.284;2023-10-19T01:58:26;95987.19;;;11.41;87.53
15932;BME280;8065;49.520;11.284;2023-10-19T02:00:52;95986.13;;;11.46;87.43
15932;BME280;8065;49.520;11.284;2023-10-19T02:03:25;95990.13;;;11.33;87.49
15932;BME280;8065;49.520;11.284;2023-10-19T02:05:57;95968.47;;;11.34;87.95
15932;BME280;8065;49.520;11.284;2023-10-19T02:08:34;95968.69;;;11.48;87.15
15932;BME280;8065;49.520;11.284;2023-10-19T02:11:03;95969.91;;;11.55;86.84
15932;BME280;8065;49.520;11.284;2023-10-19T02:13:39;95973.72;;;11.57;86.86
15932;BME280;8065;49.520;11.284;2023-10-19T02:16:05;95966.19;;;11.63;86.59
15932;BME280;8065;49.520;11.284;2023-10-19T02:18:34;95957.00;;;11.57;87.29
15932;BME280;8065;49.520;11.284;2023-10-19T02:21:00;95946.03;;;11.32;88.00
15932;BME280;8065;49.520;11.284;2023-10-19T02:23:34;95940.03;;;11.38;88.03
15932;BME280;8065;49.520;11.284;2023-10-19T02:26:00;95934.50;;;11.50;87.83
15932;BME280;8065;49.520;11.284;2023-10-19T02:28:30;95930.94;;;11.39;87.91
15932;BME280;8065;49.520;11.284;2023-10-19T02:30:58;95927.47;;;11.35;88.48
15932;BME280;8065;49.520;11.284;2023-10-19T02:33:37;95927.88;;;11.37;87.99
15932;BME280;8065;49.520;11.284;2023-10-19T02:36:03;95929.00;;;11.66;86.89
15932;BME280;8065;49.520;11.284;2023-10-19T02:38:40;95928.16;;;11.59;87.00
15932;BME280;8065;49.520;11.284;2023-10-19T02:41:08;95932.47;;;11.40;87.42
15932;BME280;8065;49.520;11.284;2023-10-19T02:43:38;95914.34;;;11.49;87.42
15932;BME280;8065;49.520;11.284;2023-10-19T02:46:03;95919.41;;;11.28;88.41
15932;BME280;8065;49.520;11.284;2023-10-19T02:48:32;95917.56;;;11.32;87.91
15932;BME280;8065;49.520;11.284;2023-10-19T02:50:58;95912.09;;;11.52;87.00
15932;BME280;8065;49.520;11.284;2023-10-19T02:53:32;95898.00;;;11.47;87.45
15932;BME280;8065;49.520;11.284;2023-10-19T02:56:09;95897.63;;;11.49;87.70
15932;BME280;8065;49.520;11.284;2023-10-19T02:58:42;95903.72;;;11.49;87.37
15932;BME280;8065;49.520;11.284;2023-10-19T03:01:14;95915.66;;;11.63;86.93
15932;BME280;8065;49.520;11.284;2023-10-19T03:03:47;95923.63;;;11.63;86.22
15932;BME280;8065;49.520;11.284;2023-10-19T03:06:17;95918.91;;;11.79;86.01
15932;BME280;8065;49.520;11.284;2023-10-19T03:08:46;95927.75;;;11.87;85.42
15932;BME280;8065;49.520;11.284;2023-10-19T03:11:14;95934.31;;;11.96;85.46
15932;BME280;8065;49.520;11.284;2023-10-19T03:13:43;95928.72;;;12.08;85.32
15932;BME280;8065;49.520;11.284;2023-10-19T03:16:15;95927.78;;;11.90;84.59
15932;BME280;8065;49.520;11.284;2023-10-19T03:18:41;95927.06;;;11.93;84.54
15932;BME280;8065;49.520;11.284;2023-10-19T03:21:09;95929.34;;;11.95;84.41
15932;BME280;8065;49.520;11.284;2023-10-19T03:23:36;95923.50;;;11.82;85.87
15932;BME280;8065;49.520;11.284;2023-10-19T03:26:06;95910.41;;;11.70;86.07
15932;BME280;8065;49.520;11.284;2023-10-19T03:28:51;95913.31;;;11.88;85.40
15932;BME280;8065;49.520;11.284;2023-10-19T03:31:21;95911.31;;;11.81;85.61
15932;BME280;8065;49.520;11.284;2023-10-19T03:33:50;95910.34;;;11.96;85.40
15932;BME280;8065;49.520;11.284;2023-10-19T03:36:23;95923.41;;;12.08;84.77
15932;BME280;8065;49.520;11.284;2023-10-19T03:38:52;95913.94;;;12.14;84.85
15932;BME280;8065;49.520;11.284;2023-10-19T03:41:21;95914.28;;;12.09;85.04
15932;BME280;8065;49.520;11.284;2023-10-19T03:43:55;95914.63;;;12.04;85.47
15932;BME280;8065;49.520;11.284;2023-10-19T03:46:23;95895.84;;;11.90;86.73
15932;BME280;8065;49.520;11.284;2023-10-19T03:48:55;95898.88;;;11.89;86.71
15932;BME280;8065;49.520;11.284;2023-10-19T03:51:28;95894.41;;;12.00;86.55
15932;BME280;8065;49.520;11.284;2023-10-19T03:54:05;95890.88;;;11.89;87.56
15932;BME280;8065;49.520;11.284;2023-10-19T03:56:40;95875.50;;;11.75;88.35
15932;BME280;8065;49.520;11.284;2023-10-19T03:59:12;95873.41;;;11.58;89.31
15932;BME280;8065;49.520;11.284;2023-10-19T04:01:41;95872.84;;;11.75;88.84
15932;BME280;8065;49.520;11.284;2023-10-19T04:04:10;95870.06;;;11.64;89.35
15932;BME280;8065;49.520;11.284;2023-10-19T04:06:39;95858.25;;;11.62;89.23
15932;BME280;8065;49.520;11.284;2023-10-19T04:09:11;95858.16;;;11.55;89.62
15932;BME280;8065;49.520;11.284;2023-10-19T04:11:41;95845.91;;;11.46;90.13
15932;BME280;8065;49.520;11.284;2023-10-19T04:14:19;95840.59;;;11.46;90.11
15932;BME280;8065;49.520;11.284;2023-10-19T04:16:47;95843.94;;;11.40;90.42
15932;BME280;8065;49.520;11.284;2023-10-19T04:19:15;95837.34;;;11.27;91.35
15932;BME280;8065;49.520;11.284;2023-10-19T04:21:44;95844.22;;;11.31;90.93
15932;BME280;8065;49.520;11.284;2023-10-19T04:24:13;95842.22;;;11.55;90.15
15932;BME280;8065;49.520;11.284;2023-10-19T04:26:43;95841.84;;;11.56;89.72
15932;BME280;8065;49.520;11.284;2023-10-19T04:29:11;95843.81;;;11.63;89.22
15932;BME280;8065;49.520;11.284;2023-10-19T04:31:45;95842.22;;;11.55;88.64
15932;BME280;8065;49.520;11.284;2023-10-19T04:34:20;95843.84;;;11.66;88.83
15932;BME280;8065;49.520;11.284;2023-10-19T04:36:49;95839.34;;;11.70;88.39
15932;BME280;8065;49.520;11.284;2023-10-19T04:39:18;95849.72;;;11.79;88.58
15932;BME280;8065;49.520;11.284;2023-10-19T04:41:46;95846.31;;;11.82;87.83
15932;BME280;8065;49.520;11.284;2023-10-19T04:44:16;95846.97;;;11.72;87.92
15932;BME280;8065;49.520;11.284;2023-10-19T04:46:47;95854.53;;;11.70;88.22
15932;BME280;8065;49.520;11.284;2023-10-19T04:49:15;95843.94;;;11.73;88.42
15932;BME280;8065;49.520;11.284;2023-10-19T04:51:44;95850.13;;;11.81;87.94
15932;BME280;8065;49.520;11.284;2023-10-19T04:54:12;95840.06;;;11.67;88.90
15932;BME280;8065;49.520;11.284;2023-10-19T04:56:41;95850.19;;;11.88;88.12
15932;BME280;8065;49.520;11.284;2023-10-19T04:59:09;95843.06;;;11.62;89.42
15932;BME280;8065;49.520;11.284;2023-10-19T05:01:37;95840.75;;;11.61;89.58
15932;BME280;8065;49.520;11.284;2023-10-19T05:04:08;95826.97;;;11.52;90.64
15932;BME280;8065;49.520;11.284;2023-10-19T05:06:38;95823.25;;;11.60;90.70
15932;BME280;8065;49.520;11.284;2023-10-19T05:09:06;95807.22;;;11.53;90.91
15932;BME280;8065;49.520;11.284;2023-10-19T05:11:37;95798.91;;;11.58;91.01
15932;BME280;8065;49.520;11.284;2023-10-19T05:14:06;95800.38;;;11.52;91.32
15932;BME280;8065;49.520;11.284;2023-10-19T05:16:34;95804.16;;;11.50;91.09
15932;BME280;8065;49.520;11.284;2023-10-19T05:19:02;95801.50;;;11.50;91.52
15932;BME280;8065;49.520;11.284;2023-10-19T05:21:33;95791.38;;;11.63;91.29
15932;BME280;8065;49.520;11.284;2023-10-19T05:24:02;95797.94;;;11.36;92.24
15932;BME280;8065;49.520;11.284;2023-10-19T05:26:33;95796.03;;;11.36;92.63
15932;BME280;8065;49.520;11.284;2023-10-19T05:29:01;95797.66;;;11.44;92.37
15932;BME280;8065;49.520;11.284;2023-10-19T05:31:29;95792.81;;;11.54;92.19
15932;BME280;8065;49.520;11.284;2023-10-19T05:33:58;95798.31;;;11.75;91.23
15932;BME280;8065;49.520;11.284;2023-10-19T05:36:27;95788.41;;;11.72;91.10
15932;BME280;8065;49.520;11.284;2023-10-19T05:39:00;95790.34;;;11.38;93.21
15932;BME280;8065;49.520;11.284;2023-10-19T05:41:29;95788.91;;;11.44;93.33
15932;BME280;8065;49.520;11.284;2023-10-19T05:43:59;95787.41;;;11.46;93.24
15932;BME280;8065;49.520;11.284;2023-10-19T05:46:29;95786.72;;;11.53;92.84
15932;BME280;8065;49.520;11.284;2023-10-19T05:48:57;95790.94;;;11.58;92.55
15932;BME280;8065;49.520;11.284;2023-10-19T05:51:29;95789.53;;;11.71;91.89
15932;BME280;8065;49.520;11.284;2023-10-19T05:54:00;95796.59;;;11.53;92.92
15932;BME280;8065;49.520;11.284;2023-10-19T05:56:30;95787.22;;;11.66;92.95
15932;BME280;8065;49.520;11.284;2023-10-19T05:58:59;95788.38;;;11.68;92.52
15932;BME280;8065;49.520;11.284;2023-10-19T06:01:28;95784.16;;;11.64;92.96
15932;BME280;8065;49.520;11.284;2023-10-19T06:03:56;95793.72;;;11.68;93.19
15932;BME280;8065;49.520;11.284;2023-10-19T06:06:24;95798.09;;;11.87;92.26
15932;BME280;8065;49.520;11.284;2023-10-19T06:08:52;95789.28;;;11.79;92.70
15932;BME280;8065;49.520;11.284;2023-10-19T06:11:28;95796.75;;;11.70;92.80
15932;BME280;8065;49.520;11.284;2023-10-19T06:13:58;95793.16;;;11.89;92.37
15932;BME280;8065;49.520;11.284;2023-10-19T06:16:26;95790.91;;;11.91;92.28
15932;BME280;8065;49.520;11.284;2023-10-19T06:18:54;95788.56;;;11.86;92.95
15932;BME280;8065;49.520;11.284;2023-10-19T06:21:23;95796.16;;;11.84;92.78
15932;BME280;8065;49.520;11.284;2023-10-19T06:23:51;95789.88;;;12.03;91.79
15932;BME280;8065;49.520;11.284;2023-10-19T06:26:20;95778.75;;;11.94;92.79
15932;BME280;8065;49.520;11.284;2023-10-19T06:28:51;95767.66;;;11.85;93.37
15932;BME280;8065;49.520;11.284;2023-10-19T06:31:23;95776.81;;;11.87;93.17
15932;BME280;8065;49.520;11.284;2023-10-19T06:33:53;95786.72;;;11.90;93.37
15932;BME280;8065;49.520;11.284;2023-10-19T06:36:22;95784.91;;;12.01;92.81
15932;BME280;8065;49.520;11.284;2023-10-19T06:38:50;95787.56;;;12.01;92.53
15932;BME280;8065;49.520;11.284;2023-10-19T06:41:19;95784.22;;;12.11;92.22
15932;BME280;8065;49.520;11.284;2023-10-19T06:43:51;95798.31;;;12.15;91.95
15932;BME280;8065;49.520;11.284;2023-10-19T06:46:20;95782.78;;;12.25;91.38
15932;BME280;8065;49.520;11.284;2023-10-19T06:48:49;95792.63;;;12.21;91.14
15932;BME280;8065;49.520;11.284;2023-10-19T06:51:21;95798.00;;;12.28;91.11
15932;BME280;8065;49.520;11.284;2023-10-19T06:53:51;95789.72;;;12.36;90.79
15932;BME280;8065;49.520;11.284;2023-10-19T06:56:21;95785.22;;;12.47;90.54
15932;BME280;8065;49.520;11.284;2023-10-19T06:58:51;95784.44;;;12.47;90.60
15932;BME280;8065;49.520;11.284;2023-10-19T07:01:20;95780.69;;;12.55;90.36
15932;BME280;8065;49.520;11.284;2023-10-19T07:03:51;95779.56;;;12.56;90.71
15932;BME280;8065;49.520;11.284;2023-10-19T07:06:22;95774.25;;;12.60;90.60
15932;BME280;8065;49.520;11.284;2023-10-19T07:08:51;95771.59;;;12.63;90.52
15932;BME280;8065;49.520;11.284;2023-10-19T07:11:19;95782.41;;;12.92;89.88
15932;BME280;8065;49.520;11.284;2023-10-19T07:13:52;95774.09;;;13.11;90.10
15932;BME280;8065;49.520;11.284;2023-10-19T07:16:20;95773.38;;;13.21;89.90
15932;BME280;8065;49.520;11.284;2023-10-19T07:18:49;95777.59;;;13.22;89.58
15932;BME280;8065;49.520;11.284;2023-10-19T07:21:18;95783.22;;;13.10;89.66
15932;BME280;8065;49.520;11.284;2023-10-19T07:23:48;95776.81;;;13.22;89.62
15932;BME280;8065;49.520;11.284;2023-10-19T07:26:17;95776.09;;;13.28;88.88
15932;BME280;8065;49.520;11.284;2023-10-19T07:28:46;95775.31;;;13.28;89.30
15932;BME280;8065;49.520;11.284;2023-10-19T07:31:18;95778.03;;;13.38;89.52
15932;BME280;8065;49.520;11.284;2023-10-19T07:33:47;95792.53;;;13.52;89.06
15932;BME280;8065;49.520;11.284;2023-10-19T07:36:16;95787.09;;;13.16;89.46
15932;BME280;8065;49.520;11.284;2023-10-19T07:38:44;95785.19;;;13.20;89.83
15932;BME280;8065;49.520;11.284;2023-10-19T07:41:13;95792.13;;;13.42;88.73
15932;BME280;8065;49.520;11.284;2023-10-19T07:43:41;95786.41;;;13.40;88.34
15932;BME280;8065;49.520;11.284;2023-10-19T07:46:10;95784.16;;;13.57;88.40
15932;BME280;8065;49.520;11.284;2023-10-19T07:48:41;95784.94;;;13.71;88.12
15932;BME280;8065;49.520;11.284;2023-10-19T07:51:09;95791.81;;;13.69;88.30
15932;BME280;8065;49.520;11.284;2023-10-19T07:53:38;95795.66;;;13.82;87.65
15932;BME280;8065;49.520;11.284;2023-10-19T07:56:06;95788.00;;;13.95;87.45
15932;BME280;8065;49.520;11.284;2023-10-19T07:58:35;95781.91;;;13.94;87.55
15932;BME280;8065;49.520;11.284;2023-10-19T08:01:05;95776.94;;;14.10;87.27
15932;BME280;8065;49.520;11.284;2023-10-19T08:03:33;95771.22;;;14.05;87.16
15932;BME280;8065;49.520;11.284;2023-10-19T08:06:04;95773.16;;;13.83;87.42
15932;BME280;8065;49.520;11.284;2023-10-19T08:08:33;95776.19;;;14.06;87.21
15932;BME280;8065;49.520;11.284;2023-10-19T08:11:02;95780.00;;;14.34;87.13
15932;BME280;8065;49.520;11.284;2023-10-19T08:13:30;95775.41;;;14.63;86.41
15932;BME280;8065;49.520;11.284;2023-10-19T08:16:00;95771.59;;;14.53;86.29
15932;BME280;8065;49.520;11.284;2023-10-19T08:18:28;95749.81;;;14.55;85.81
15932;BME280;8065;49.520;11.284;2023-10-19T08:20:57;95762.78;;;14.60;85.89
15932;BME280;8065;49.520;11.284;2023-10-19T08:23:29;95753.22;;;14.69;83.55
15932;BME280;8065;49.520;11.284;2023-10-19T08:25:57;95755.94;;;14.41;84.55
15932;BME280;8065;49.520;11.284;2023-10-19T08:28:26;95768.13;;;14.63;83.91
15932;BME280;8065;49.520;11.284;2023-10-19T08:30:54;95766.53;;;14.76;84.35
15932;BME280;8065;49.520;11.284;2023-10-19T08:33:26;95759.75;;;14.54;85.37
15932;BME280;8065;49.520;11.284;2023-10-19T08:35:55;95763.09;;;14.80;84.62
15932;BME280;8065;49.520;11.284;2023-10-19T08:38:25;95766.59;;;14.73;84.58
15932;BME280;8065;49.520;11.284;2023-10-19T08:40:56;95761.94;;;14.84;84.38
15932;BME280;8065;49.520;11.284;2023-10-19T08:43:25;95768.06;;;14.77;84.22
15932;BME280;8065;49.520;11.284;2023-10-19T08:45:54;95761.59;;;14.75;85.12
15932;BME280;8065;49.520;11.284;2023-10-19T08:48:23;95757.00;;;14.75;85.64
15932;BME280;8065;49.520;11.284;2023-10-19T08:50:51;95761.19;;;14.84;85.42
15932;BME280;8065;49.520;11.284;2023-10-19T08:53:21;95755.06;;;14.83;86.16
15932;BME280;8065;49.520;11.284;2023-10-19T08:55:50;95752.19;;;15.29;85.78
15932;BME280;8065;49.520;11.284;2023-10-19T08:58:22;95744.69;;;15.69;84.99
15932;BME280;8065;49.520;11.284;2023-10-19T09:00:52;95736.00;;;15.58;82.66
15932;BME280;8065;49.520;11.284;2023-10-19T09:03:22;95730.50;;;16.24;82.50
15932;BME280;8065;49.520;11.284;2023-10-19T09:05:51;95736.69;;;16.55;81.11
15932;BME280;8065;49.520;11.284;2023-10-19T09:08:19;95732.06;;;16.93;78.32
15932;BME280;8065;49.520;11.284;2023-10-19T09:10:48;95725.47;;;16.63;77.78
15932;BME280;8065;49.520;11.284;2023-10-19T09:13:18;95730.13;;;16.59;79.85
15932;BME280;8065;49.520;11.284;2023-10-19T09:15:50;95739.31;;;16.96;77.63
15932;BME280;8065;49.520;11.284;2023-10-19T09:18:21;95757.72;;;16.56;79.16
15932;BME280;8065;49.520;11.284;2023-10-19T09:20:53;95753.53;;;16.18;78.79
15932;BME280;8065;49.520;11.284;2023-10-19T09:23:27;95754.94;;;16.29;79.68
15932;BME280;8065;49.520;11.284;2023-10-19T09:25:57;95759.47;;;16.39;79.73
15932;BME280;8065;49.520;11.284;2023-10-19T09:28:25;95754.84;;;16.40;81.72
15932;BME280;8065;49.520;11.284;2023-10-19T09:30:57;95742.13;;;16.85;80.16
15932;BME280;8065;49.520;11.284;2023-10-19T09:33:26;95744.53;;;17.37;78.87
15932;BME280;8065;49.520;11.284;2023-10-19T09:35:55;95744.78;;;17.77;77.09
15932;BME280;8065;49.520;11.284;2023-10-19T09:38:26;95748.81;;;17.61;77.82
15932;BME280;8065;49.520;11.284;2023-10-19T09:40:57;95745.59;;;17.74;77.95
15932;BME280;8065;49.520;11.284;2023-10-19T09:43:33;95752.59;;;17.64;77.88
15932;BME280;8065;49.520;11.284;2023-10-19T09:46:06;95746.44;;;17.67;75.87
15932;BME280;8065;49.520;11.284;2023-10-19T09:48:39;95752.00;;;17.53;75.24
15932;BME280;8065;49.520;11.284;2023-10-19T09:51:11;95754.88;;;17.69;76.32
15932;BME280;8065;49.520;11.284;2023-10-19T09:53:44;95744.88;;;17.69;75.00
15932;BME280;8065;49.520;11.284;2023-10-19T09:56:19;95740.38;;;17.59;74.42
15932;BME280;8065;49.520;11.284;2023-10-19T09:58:50;95757.38;;;17.53;74.92
15932;BME280;8065;49.520;11.284;2023-10-19T10:01:23;95758.78;;;17.61;74.86
15932;BME280;8065;49.520;11.284;2023-10-19T10:03:52;95757.31;;;17.56;75.29
15932;BME280;8065;49.520;11.284;2023-10-19T10:06:30;95742.53;;;17.72;77.63
15932;BME280;8065;49.520;11.284;2023-10-19T10:09:00;95739.25;;;17.87;77.87
15932;BME280;8065;49.520;11.284;2023-10-19T10:11:28;95711.94;;;17.62;79.37
15932;BME280;8065;49.520;11.284;2023-10-19T10:13:58;95697.34;;;17.63;78.45
15932;BME280;8065;49.520;11.284;2023-10-19T10:16:28;95687.59;;;17.99;79.35
15932;BME280;8065;49.520;11.284;2023-10-19T10:18:58;95694.03;;;17.82;79.52
15932;BME280;8065;49.520;11.284;2023-10-19T10:21:29;95697.75;;;17.88;78.88
15932;BME280;8065;49.520;11.284;2023-10-19T10:24:00;95696.00;;;18.01;78.46
15932;BME280;8065;49.520;11.284;2023-10-19T10:26:31;95697.81;;;17.85;78.36
15932;BME280;8065;49.520;11.284;2023-10-19T10:29:21;95681.75;;;17.81;77.72
15932;BME280;8065;49.520;11.284;2023-10-19T10:31:54;95675.78;;;17.70;78.50
15932;BME280;8065;49.520;11.284;2023-10-19T10:34:42;95684.28;;;17.65;78.69
15932;BME280;8065;49.520;11.284;2023-10-19T10:37:11;95669.72;;;17.62;78.78
15932;BME280;8065;49.520;11.284;2023-10-19T10:39:40;95665.84;;;17.67;78.80
15932;BME280;8065;49.520;11.284;2023-10-19T10:42:10;95665.28;;;17.79;78.50
15932;BME280;8065;49.520;11.284;2023-10-19T10:44:41;95668.53;;;17.67;79.08
15932;BME280;8065;49.520;11.284;2023-10-19T10:47:16;95675.66;;;17.77;78.50
15932;BME280;8065;49.520;11.284;2023-10-19T10:49:51;95664.09;;;17.80;78.64
15932;BME280;8065;49.520;11.284;2023-10-19T10:52:27;95668.78;;;17.76;78.34
15932;BME280;8065;49.520;11.284;2023-10-19T10:54:57;95658.84;;;17.73;79.12
15932;BME280;8065;49.520;11.284;2023-10-19T10:57:31;95655.09;;;17.67;80.32
15932;BME280;8065;49.520;11.284;2023-10-19T11:00:04;95657.34;;;17.72;80.08
15932;BME280;8065;49.520;11.284;2023-10-19T11:02:37;95655.53;;;17.62;79.62
15932;BME280;8065;49.520;11.284;2023-10-19T11:05:08;95651.25;;;17.68;79.84
15932;BME280;8065;49.520;11.284;2023-10-19T11:07:37;95652.03;;;17.65;80.22
15932;BME280;8065;49.520;11.284;2023-10-19T11:10:06;95645.22;;;17.60;78.92
15932;BME280;8065;49.520;11.284;2023-10-19T11:12:35;95641.41;;;17.58;80.20
15932;BME280;8065;49.520;11.284;2023-10-19T11:15:05;95656.28;;;17.66;80.24
15932;BME280;8065;49.520;11.284;2023-10-19T11:17:42;95649.75;;;17.63;80.22
15932;BME280;8065;49.520;11.284;2023-10-19T11:20:20;95652.53;;;17.83;79.25
15932;BME280;8065;49.520;11.284;2023-10-19T11:22:51;95643.88;;;17.95;79.67
15932;BME280;8065;49.520;11.284;2023-10-19T11:25:22;95647.78;;;18.14;78.53
15932;BME280;8065;49.520;11.284;2023-10-19T11:27:53;95643.56;;;18.33;77.76
15932;BME280;8065;49.520;11.284;2023-10-19T11:30:25;95647.16;;;18.46;78.52
15932;BME280;8065;49.520;11.284;2023-10-19T11:32:57;95641.88;;;18.62;78.59
15932;BME280;8065;49.520;11.284;2023-10-19T11:35:27;95634.91;;;18.85;77.16
15932;BME280;8065;49.520;11.284;2023-10-19T11:37:59;95625.06;;;18.94;77.46
15932;BME280;8065;49.520;11.284;2023-10-19T11:40:28;95630.72;;;19.00;76.98
15932;BME280;8065;49.520;11.284;2023-10-19T11:42:56;95627.38;;;19.28;75.88
15932;BME280;8065;49.520;11.284;2023-10-19T11:45:26;95625.69;;;19.35;76.96
15932;BME280;8065;49.520;11.284;2023-10-19T11:47:57;95619.88;;;19.36;75.50
15932;BME280;8065;49.520;11.284;2023-10-19T11:50:25;95611.56;;;19.47;76.27
15932;BME280;8065;49.520;11.284;2023-10-19T11:52:53;95608.53;;;19.45;74.48
15932;BME280;8065;49.520;11.284;2023-10-19T11:55:22;95607.44;;;19.75;74.20
15932;BME280;8065;49.520;11.284;2023-10-19T11:57:51;95606.66;;;19.90;74.59
15932;BME280;8065;49.520;11.284;2023-10-19T12:00:19;95606.94;;;19.80;75.51
15932;BME280;8065;49.520;11.284;2023-10-19T12:03:02;95596.41;;;19.85;75.39
15932;BME280;8065;49.520;11.284;2023-10-19T12:05:31;95597.25;;;19.50;75.84
15932;BME280;8065;49.520;11.284;2023-10-19T12:08:02;95589.34;;;19.59;76.21
15932;BME280;8065;49.520;11.284;2023-10-19T12:10:32;95595.06;;;19.61;76.36
15932;BME280;8065;49.520;11.284;2023-10-19T12:13:01;95594.41;;;19.57;76.43
15932;BME280;8065;49.520;11.284;2023-10-19T12:15:31;95588.09;;;19.63;75.75
15932;BME280;8065;49.520;11.284;2023-10-19T12:18:02;95591.03;;;19.69;76.55
15932;BME280;8065;49.520;11.284;2023-10-19T12:20:31;95586.63;;;19.43;75.92
15932;BME280;8065;49.520;11.284;2023-10-19T12:23:01;95585.47;;;19.44;76.56
15932;BME280;8065;49.520;11.284;2023-10-19T12:25:30;95588.78;;;19.51;75.86
15932;BME280;8065;49.520;11.284;2023-10-19T12:28:00;95584.13;;;19.52;76.47
15932;BME280;8065;49.520;11.284;2023-10-19T12:30:29;95586.00;;;19.55;77.11
15932;BME280;8065;49.520;11.284;2023-10-19T12:33:04;95579.72;;;19.42;76.92
15932;BME280;8065;49.520;11.284;2023-10-19T12:35:36;95575.88;;;19.43;76.93
15932;BME280;8065;49.520;11.284;2023-10-19T12:38:15;95582.25;;;19.49;76.85
15932;BME280;8065;49.520;11.284;2023-10-19T12:40:45;95581.28;;;19.59;76.78
15932;BME280;8065;49.520;11.284;2023-10-19T12:43:16;95583.78;;;19.33;77.10
15932;BME280;8065;49.520;11.284;2023-10-19T12:45:47;95577.22;;;19.35;76.37
15932;BME280;8065;49.520;11.284;2023-10-19T12:48:21;95576.19;;;19.28;77.63
15932;BME280;8065;49.520;11.284;2023-10-19T12:50:55;95572.16;;;19.37;77.96
15932;BME280;8065;49.520;11.284;2023-10-19T12:53:23;95574.00;;;19.23;77.54
15932;BME280;8065;49.520;11.284;2023-10-19T12:55:52;95575.53;;;19.41;77.08
15932;BME280;8065;49.520;11.284;2023-10-19T12:58:20;95572.25;;;19.49;76.79
15932;BME280;8065;49.520;11.284;2023-10-19T13:00:49;95583.84;;;19.46;76.18
15932;BME280;8065;49.520;11.284;2023-10-19T13:03:17;95575.09;;;19.42;76.53
15932;BME280;8065;49.520;11.284;2023-10-19T13:05:49;95569.22;;;19.47;76.88
15932;BME280;8065;49.520;11.284;2023-10-19T13:08:18;95576.97;;;19.45;77.11
15932;BME280;8065;49.520;11.284;2023-10-19T13:10:48;95572.50;;;19.39;76.98
15932;BME280;8065;49.520;11.284;2023-10-19T13:13:16;95570.72;;;19.48;76.59
15932;BME280;8065;49.520;11.284;2023-10-19T13:15:48;95566.94;;;19.46;76.94
15932;BME280;8065;49.520;11.284;2023-10-19T13:18:19;95570.72;;;19.48;76.77